createdAt,value
2022-08-12T00:00:19.126Z,15.70
2022-08-12T00:03:04.841Z,15.60
2022-08-12T00:06:01.851Z,15.60
2022-08-12T00:08:57.144Z,15.60
2022-08-12T00:11:44.121Z,15.50
2022-08-12T00:14:29.874Z,15.40
2022-08-12T00:17:15.980Z,15.40
2022-08-12T00:20:01.581Z,15.40
2022-08-12T00:22:58.784Z,15.30
2022-08-12T00:26:21.215Z,15.30
2022-08-12T00:29:08.313Z,15.30
2022-08-12T00:31:53.709Z,15.20
2022-08-12T00:34:39.303Z,15.10
2022-08-12T00:37:25.369Z,15.10
2022-08-12T00:40:14.061Z,15.00
2022-08-12T00:42:42.589Z,15.00
2022-08-12T00:45:10.558Z,14.90
2022-08-12T00:47:38.731Z,14.80
2022-08-12T00:50:06.886Z,14.80
2022-08-12T00:52:35.567Z,14.70
2022-08-12T00:55:04.800Z,14.70
2022-08-12T00:57:37.633Z,14.60
2022-08-12T01:00:10.360Z,14.60
2022-08-12T01:02:42.928Z,14.50
2022-08-12T01:05:30.978Z,14.40
2022-08-12T01:08:16.929Z,14.40
2022-08-12T01:11:04.140Z,14.30
2022-08-12T01:13:33.303Z,14.30
2022-08-12T01:16:02.476Z,14.20
2022-08-12T01:18:32.532Z,14.20
2022-08-12T01:21:27.494Z,14.20
2022-08-12T01:24:29.727Z,14.10
2022-08-12T01:26:59.754Z,14.10
2022-08-12T01:29:34.943Z,14.00
2022-08-12T01:32:08.530Z,14.00
2022-08-12T01:34:39.678Z,14.00
2022-08-12T01:37:08.850Z,14.00
2022-08-12T01:40:36.098Z,13.90
2022-08-12T01:42:47.687Z,13.90
2022-08-12T01:45:17.604Z,13.90
2022-08-12T01:47:53.591Z,13.90
2022-08-12T01:50:36.841Z,13.90
2022-08-12T01:53:11.251Z,13.80
2022-08-12T01:55:47.531Z,13.80
2022-08-12T01:58:18.054Z,13.80
2022-08-12T02:00:55.501Z,13.80
2022-08-12T02:03:26.356Z,13.70
2022-08-12T02:06:24.965Z,13.70
2022-08-12T02:09:18.462Z,13.70
2022-08-12T02:12:09.515Z,13.70
2022-08-12T02:14:56.860Z,13.80
2022-08-12T02:17:55.556Z,13.90
2022-08-12T02:20:23.554Z,13.80
2022-08-12T02:23:12.602Z,13.80
2022-08-12T02:25:44.979Z,13.80
2022-08-12T02:28:11.968Z,13.80
2022-08-12T02:30:41.772Z,13.80
2022-08-12T02:33:10.476Z,13.90
2022-08-12T02:35:39.762Z,14.00
2022-08-12T02:38:10.536Z,14.00
2022-08-12T02:40:40.294Z,14.00
2022-08-12T02:43:27.040Z,14.10
2022-08-12T02:46:14.102Z,14.20
2022-08-12T02:49:03.716Z,14.20
2022-08-12T02:51:33.741Z,14.20
2022-08-12T02:54:05.289Z,14.20
2022-08-12T02:56:40.397Z,14.10
2022-08-12T02:59:11.804Z,14.10
2022-08-12T03:01:48.420Z,14.10
2022-08-12T03:04:24.506Z,14.10
2022-08-12T03:07:09.877Z,14.00
2022-08-12T03:10:04.649Z,14.00
2022-08-12T03:12:49.087Z,13.90
2022-08-12T03:15:22.231Z,13.90
2022-08-12T03:18:25.779Z,13.90
2022-08-12T03:20:43.408Z,13.80
2022-08-12T03:23:29.549Z,13.80
2022-08-12T03:26:02.471Z,13.80
2022-08-12T03:28:50.422Z,13.80
2022-08-12T03:31:20.190Z,13.80
2022-08-12T03:34:01.778Z,13.80
2022-08-12T03:36:32.295Z,13.70
2022-08-12T03:39:19.167Z,13.70
2022-08-12T03:41:55.349Z,13.60
2022-08-12T03:44:56.675Z,13.60
2022-08-12T03:47:50.406Z,13.50
2022-08-12T03:50:37.182Z,13.40
2022-08-12T03:53:25.553Z,13.30
2022-08-12T03:56:11.145Z,13.30
2022-08-12T03:58:57.459Z,13.20
2022-08-12T04:01:26.540Z,13.10
2022-08-12T04:03:54.719Z,13.10
2022-08-12T04:06:35.316Z,13.10
2022-08-12T04:09:14.552Z,13.10
2022-08-12T04:12:04.492Z,13.10
2022-08-12T04:14:32.610Z,13.00
2022-08-12T04:17:02.078Z,13.00
2022-08-12T04:19:29.985Z,13.00
2022-08-12T04:22:02.648Z,13.00
2022-08-12T04:24:34.585Z,12.90
2022-08-12T04:27:02.937Z,12.90
2022-08-12T04:30:21.409Z,12.80
2022-08-12T04:32:16.598Z,12.80
2022-08-12T04:34:44.478Z,12.80
2022-08-12T04:37:13.018Z,12.70
2022-08-12T04:39:40.655Z,12.80
2022-08-12T04:42:08.580Z,12.70
2022-08-12T04:44:35.380Z,12.80
2022-08-12T04:47:02.229Z,12.80
2022-08-12T04:49:32.113Z,12.80
2022-08-12T04:52:00.359Z,12.80
2022-08-12T04:54:27.966Z,12.80
2022-08-12T04:57:04.026Z,12.80
2022-08-12T04:59:48.029Z,12.80
2022-08-12T05:02:21.735Z,12.90
2022-08-12T05:04:51.727Z,12.90
2022-08-12T05:07:20.095Z,12.90
2022-08-12T05:09:59.238Z,12.90
2022-08-12T05:12:41.237Z,12.90
2022-08-12T05:15:19.050Z,13.00
2022-08-12T05:17:55.874Z,13.00
2022-08-12T05:20:23.410Z,13.10
2022-08-12T05:22:53.293Z,13.10
2022-08-12T05:25:25.144Z,13.20
2022-08-12T05:27:58.246Z,13.30
2022-08-12T05:30:30.901Z,13.40
2022-08-12T05:33:00.249Z,13.50
2022-08-12T05:35:44.834Z,13.60
2022-08-12T05:38:48.626Z,13.70
2022-08-12T05:41:21.599Z,13.80
2022-08-12T05:43:51.207Z,13.90
2022-08-12T05:46:19.427Z,14.10
2022-08-12T05:48:46.893Z,14.20
2022-08-12T05:51:14.993Z,14.30
2022-08-12T05:53:42.492Z,14.40
2022-08-12T05:56:32.559Z,14.60
2022-08-12T05:59:01.327Z,14.80
2022-08-12T06:02:08.853Z,14.90
2022-08-12T06:04:27.407Z,15.10
2022-08-12T06:06:54.263Z,15.30
2022-08-12T06:09:30.871Z,15.50
2022-08-12T06:12:05.248Z,15.60
2022-08-12T06:14:36.544Z,15.80
2022-08-12T06:17:07.512Z,16.00
2022-08-12T06:20:27.603Z,16.30
2022-08-12T06:22:21.426Z,16.60
2022-08-12T06:24:49.707Z,16.90
2022-08-12T06:27:18.599Z,17.10
2022-08-12T06:30:07.196Z,17.40
2022-08-12T06:32:32.408Z,17.70
2022-08-12T06:35:26.770Z,18.10
2022-08-12T06:37:56.675Z,18.50
2022-08-12T06:40:48.777Z,18.80
2022-08-12T06:43:15.650Z,19.20
2022-08-12T06:45:49.536Z,19.50
2022-08-12T06:48:17.287Z,19.80
2022-08-12T06:50:44.387Z,20.20
2022-08-12T06:53:11.577Z,20.50
2022-08-12T06:55:39.294Z,21.00
2022-08-12T06:58:25.157Z,21.30
2022-08-12T07:00:52.280Z,21.70
2022-08-12T07:03:27.621Z,22.00
2022-08-12T07:06:00.456Z,22.20
2022-08-12T07:08:32.750Z,22.50
2022-08-12T07:11:01.803Z,22.80
2022-08-12T07:13:35.071Z,23.00
2022-08-12T07:16:02.664Z,23.00
2022-08-12T07:18:35.526Z,22.90
2022-08-12T07:21:09.022Z,23.30
2022-08-12T07:23:41.744Z,23.90
2022-08-12T07:26:16.054Z,24.40
2022-08-12T07:28:44.676Z,24.80
2022-08-12T07:31:12.418Z,25.00
2022-08-12T07:33:44.525Z,25.00
2022-08-12T07:36:14.522Z,25.10
2022-08-12T07:38:45.123Z,25.40
2022-08-12T07:41:19.707Z,25.50
2022-08-12T07:43:49.322Z,25.80
2022-08-12T07:46:19.769Z,26.20
2022-08-12T07:48:54.020Z,26.40
2022-08-12T07:51:24.738Z,26.80
2022-08-12T07:54:00.819Z,26.80
2022-08-12T07:56:31.225Z,26.60
2022-08-12T07:58:59.039Z,26.60
2022-08-12T08:01:26.180Z,26.70
2022-08-12T08:04:17.964Z,27.00
2022-08-12T08:06:46.574Z,27.20
2022-08-12T08:09:17.304Z,27.70
2022-08-12T08:12:03.197Z,28.10
2022-08-12T08:14:31.693Z,28.30
2022-08-12T08:17:00.376Z,28.20
2022-08-12T08:19:29.135Z,28.00
2022-08-12T08:21:58.729Z,28.10
2022-08-12T08:24:28.028Z,28.20
2022-08-12T08:26:56.769Z,28.80
2022-08-12T08:29:24.458Z,29.40
2022-08-12T08:31:58.541Z,29.30
2022-08-12T08:34:53.938Z,29.80
2022-08-12T08:37:17.299Z,30.30
2022-08-12T08:39:44.389Z,30.90
2022-08-12T08:42:30.129Z,31.00
2022-08-12T08:44:58.835Z,31.10
2022-08-12T08:47:25.964Z,31.20
2022-08-12T08:49:52.926Z,31.40
2022-08-12T08:52:40.330Z,31.40
2022-08-12T08:55:20.880Z,31.60
2022-08-12T08:57:54.195Z,32.00
2022-08-12T09:00:21.920Z,32.30
2022-08-12T09:08:26.780Z,32.20
2022-08-12T09:10:59.792Z,31.70
2022-08-12T09:14:12.267Z,31.50
2022-08-12T09:16:20.887Z,31.20
2022-08-12T09:18:52.358Z,31.40
2022-08-12T09:21:23.154Z,31.40
2022-08-12T09:23:59.871Z,31.30
2022-08-12T09:26:29.369Z,31.70
2022-08-12T09:28:57.941Z,32.70
2022-08-12T09:32:04.065Z,33.50
2022-08-12T09:34:27.351Z,33.90
2022-08-12T09:37:02.954Z,34.70
2022-08-12T09:40:06.017Z,35.50
2022-08-12T09:43:11.285Z,35.90
2022-08-12T09:46:20.201Z,36.10
2022-08-12T09:48:34.916Z,35.60
2022-08-12T09:51:03.883Z,34.90
2022-08-12T09:53:38.525Z,34.10
2022-08-12T09:56:59.581Z,33.40
2022-08-12T09:59:01.334Z,32.90
2022-08-12T10:01:35.227Z,33.10
2022-08-12T10:04:19.202Z,33.40
2022-08-12T10:06:55.355Z,34.30
2022-08-12T10:09:28.959Z,34.40
2022-08-12T10:12:31.101Z,34.80
2022-08-12T10:14:59.650Z,35.00
2022-08-12T10:17:26.473Z,33.90
2022-08-12T10:19:53.405Z,34.10
2022-08-12T10:22:38.952Z,34.50
2022-08-12T10:26:36.163Z,34.80
2022-08-12T10:28:36.635Z,34.60
2022-08-12T10:31:05.635Z,33.90
2022-08-12T10:33:55.549Z,33.90
2022-08-12T10:36:40.894Z,34.30
2022-08-12T10:39:59.930Z,35.10
2022-08-12T10:42:32.368Z,35.60
2022-08-12T10:45:05.282Z,35.10
2022-08-12T10:48:20.157Z,34.10
2022-08-12T10:50:31.094Z,34.00
2022-08-12T10:53:08.734Z,33.40
2022-08-12T10:55:36.254Z,33.80
2022-08-12T10:58:27.491Z,34.50
2022-08-12T11:01:26.263Z,34.40
2022-08-12T11:04:22.489Z,34.20
2022-08-12T11:07:05.820Z,34.30
2022-08-12T11:09:11.981Z,34.40
2022-08-12T11:12:35.746Z,34.20
2022-08-12T11:14:48.372Z,34.70
2022-08-12T11:17:43.073Z,35.00
2022-08-12T11:20:05.345Z,35.40
2022-08-12T11:22:32.510Z,35.80
2022-08-12T11:24:59.395Z,36.00
2022-08-12T11:27:29.595Z,36.50
2022-08-12T11:30:06.056Z,35.80
2022-08-12T11:32:38.873Z,35.60
2022-08-12T11:35:07.117Z,36.20
2022-08-12T11:37:48.387Z,36.60
2022-08-12T11:40:22.587Z,36.70
2022-08-12T11:42:50.215Z,36.60
2022-08-12T11:45:19.607Z,36.60
2022-08-12T11:47:46.701Z,36.70
2022-08-12T11:50:19.305Z,36.70
2022-08-12T11:52:55.245Z,36.40
2022-08-12T11:55:23.355Z,36.00
2022-08-12T11:58:40.575Z,35.60
2022-08-12T12:03:43.656Z,34.30
2022-08-12T12:06:16.925Z,34.70
2022-08-12T12:08:50.393Z,34.80
2022-08-12T12:11:19.065Z,35.20
2022-08-12T12:14:08.867Z,35.10
2022-08-12T12:16:33.605Z,35.00
2022-08-12T12:19:08.826Z,35.10
2022-08-12T12:21:47.112Z,34.80
2022-08-12T12:24:21.285Z,34.30
2022-08-12T12:27:00.673Z,33.70
2022-08-12T12:30:18.700Z,33.50
2022-08-12T12:32:18.874Z,33.20
2022-08-12T12:35:44.243Z,33.10
2022-08-12T12:38:05.062Z,33.80
2022-08-12T12:40:21.714Z,33.60
2022-08-12T12:43:01.820Z,34.20
2022-08-12T12:45:33.890Z,34.40
2022-08-12T12:48:02.430Z,33.60
2022-08-12T12:50:35.393Z,33.60
2022-08-12T12:53:05.390Z,33.50
2022-08-12T12:55:35.746Z,33.60
2022-08-12T12:58:05.251Z,33.90
2022-08-12T13:00:32.876Z,33.90
2022-08-12T13:03:00.352Z,33.70
2022-08-12T13:05:42.319Z,33.70
2022-08-12T13:08:28.429Z,34.10
2022-08-12T13:11:04.709Z,33.50
2022-08-12T13:14:08.615Z,33.30
2022-08-12T13:16:27.228Z,33.00
2022-08-12T13:18:55.021Z,32.60
2022-08-12T13:21:33.647Z,32.10
2022-08-12T13:24:09.641Z,31.40
2022-08-12T13:26:37.846Z,31.70
2022-08-12T13:29:04.715Z,32.00
2022-08-12T13:31:35.544Z,32.10
2022-08-12T13:34:32.348Z,32.20
2022-08-12T13:37:00.644Z,32.50
2022-08-12T13:39:30.319Z,32.20
2022-08-12T13:42:02.304Z,32.50
2022-08-12T13:44:30.149Z,32.50
2022-08-12T13:46:58.861Z,32.60
2022-08-12T13:49:53.583Z,32.40
2022-08-12T13:52:14.330Z,32.00
2022-08-12T13:54:41.134Z,32.00
2022-08-12T13:57:44.472Z,32.50
2022-08-12T14:00:15.013Z,33.10
2022-08-12T14:02:43.668Z,33.20
2022-08-12T14:05:38.365Z,32.90
2022-08-12T14:08:05.966Z,33.10
2022-08-12T14:10:37.810Z,33.40
2022-08-12T14:13:17.166Z,33.40
2022-08-12T14:16:03.338Z,32.70
2022-08-12T14:18:32.682Z,31.50
2022-08-12T14:21:06.175Z,31.10
2022-08-12T14:24:04.083Z,31.20
2022-08-12T14:26:30.556Z,31.50
2022-08-12T14:29:01.917Z,31.80
2022-08-12T14:31:31.799Z,31.50
2022-08-12T14:33:59.798Z,31.00
2022-08-12T14:36:26.771Z,30.50
2022-08-12T14:38:55.175Z,30.40
2022-08-12T14:41:36.839Z,30.20
2022-08-12T14:44:57.898Z,29.80
2022-08-12T14:47:00.678Z,29.80
2022-08-12T14:50:33.819Z,30.20
2022-08-12T14:53:11.426Z,30.30
2022-08-12T14:57:57.111Z,30.10
2022-08-12T15:00:50.643Z,30.10
2022-08-12T15:03:18.143Z,30.10
2022-08-12T15:06:05.359Z,30.00
2022-08-12T15:08:35.252Z,30.10
2022-08-12T15:11:03.860Z,30.20
2022-08-12T15:13:33.185Z,30.10
2022-08-12T15:16:01.905Z,30.00
2022-08-12T15:18:30.659Z,30.10
2022-08-12T15:21:04.919Z,30.40
2022-08-12T15:23:45.751Z,30.20
2022-08-12T15:26:28.597Z,29.90
2022-08-12T15:28:56.670Z,29.50
2022-08-12T15:31:28.366Z,29.30
2022-08-12T15:34:12.993Z,29.10
2022-08-12T15:36:54.769Z,29.20
2022-08-12T15:39:22.561Z,29.30
2022-08-12T15:41:55.204Z,29.30
2022-08-12T15:44:38.022Z,28.90
2022-08-12T15:47:08.572Z,28.70
2022-08-12T15:49:54.384Z,28.50
2022-08-12T15:52:28.557Z,28.40
2022-08-12T15:54:59.397Z,28.30
2022-08-12T15:57:53.894Z,28.20
2022-08-12T16:00:33.097Z,28.20
2022-08-12T16:03:13.279Z,28.10
2022-08-12T16:06:13.249Z,28.00
2022-08-12T16:08:29.815Z,27.90
2022-08-12T16:10:57.551Z,28.00
2022-08-12T16:13:34.891Z,28.00
2022-08-12T16:16:23.140Z,28.00
2022-08-12T16:18:58.643Z,28.00
2022-08-12T16:21:51.404Z,27.90
2022-08-12T16:24:15.701Z,27.80
2022-08-12T16:26:45.110Z,27.80
2022-08-12T16:29:14.971Z,27.60
2022-08-12T16:31:44.585Z,27.60
2022-08-12T16:34:26.193Z,27.50
2022-08-12T16:37:08.667Z,27.40
2022-08-12T16:40:00.227Z,27.30
2022-08-12T16:42:27.763Z,27.30
2022-08-12T16:45:02.225Z,27.30
2022-08-12T16:47:57.274Z,27.20
2022-08-12T16:50:19.406Z,27.00
2022-08-12T16:52:50.554Z,26.90
2022-08-12T16:55:18.825Z,26.90
2022-08-12T16:57:48.501Z,26.90
2022-08-12T17:00:18.463Z,26.80
2022-08-12T17:02:54.827Z,26.80
2022-08-12T17:05:25.194Z,26.80
2022-08-12T17:08:00.204Z,26.70
2022-08-12T17:10:35.452Z,26.60
2022-08-12T17:13:09.753Z,26.50
2022-08-12T17:15:57.656Z,26.50
2022-08-12T17:18:44.255Z,26.60
2022-08-12T17:21:41.091Z,26.70
2022-08-12T17:24:15.371Z,26.70
2022-08-12T17:26:49.493Z,26.40
2022-08-12T17:30:00.822Z,26.00
2022-08-12T17:32:14.455Z,25.60
2022-08-12T17:35:00.678Z,25.40
2022-08-12T17:37:55.336Z,25.20
2022-08-12T17:40:35.620Z,25.00
2022-08-12T17:43:57.900Z,24.80
2022-08-12T17:45:58.850Z,24.70
2022-08-12T17:48:34.651Z,24.60
2022-08-12T17:51:15.053Z,24.50
2022-08-12T17:54:11.646Z,24.30
2022-08-12T17:56:33.112Z,24.20
2022-08-12T17:59:02.367Z,24.10
2022-08-12T18:01:34.925Z,24.00
2022-08-12T18:04:22.194Z,23.90
2022-08-12T18:06:53.989Z,23.80
2022-08-12T18:09:24.348Z,23.50
2022-08-12T18:12:11.934Z,23.40
2022-08-12T18:14:41.372Z,23.20
2022-08-12T18:17:17.794Z,23.00
2022-08-12T18:20:05.842Z,22.90
2022-08-12T18:22:32.966Z,22.80
2022-08-12T18:25:03.669Z,22.70
2022-08-12T18:27:44.033Z,22.60
2022-08-12T18:30:13.415Z,22.40
2022-08-12T18:32:59.066Z,22.30
2022-08-12T18:35:42.339Z,22.30
2022-08-12T18:38:18.220Z,22.20
2022-08-12T18:41:07.595Z,22.00
2022-08-12T18:43:58.807Z,22.00
2022-08-12T18:46:32.316Z,21.90
2022-08-12T18:49:18.799Z,21.80
2022-08-12T18:51:55.189Z,21.70
2022-08-12T18:54:32.309Z,21.60
2022-08-12T18:57:03.805Z,21.50
2022-08-12T19:00:01.581Z,21.40
2022-08-12T19:02:23.072Z,21.30
2022-08-12T19:04:53.228Z,21.20
2022-08-12T19:07:24.472Z,21.20
2022-08-12T19:10:00.013Z,21.10
2022-08-12T19:12:56.939Z,21.00
2022-08-12T19:15:27.239Z,20.90
2022-08-12T19:18:02.440Z,20.90
2022-08-12T19:20:30.681Z,20.80
2022-08-12T19:23:02.448Z,20.70
2022-08-12T19:25:59.580Z,20.60
2022-08-12T19:28:30.224Z,20.50
2022-08-12T19:31:55.465Z,20.40
2022-08-12T19:38:02.979Z,20.20
2022-08-12T19:40:31.548Z,20.10
2022-08-12T19:43:19.062Z,20.00
2022-08-12T19:45:57.820Z,19.90
2022-08-12T19:48:30.758Z,19.80
2022-08-12T19:51:08.892Z,19.70
2022-08-12T19:53:57.483Z,19.60
2022-08-12T19:56:28.621Z,19.50
2022-08-12T19:59:18.767Z,19.40
2022-08-12T20:02:03.161Z,19.30
2022-08-12T20:04:38.797Z,19.20
2022-08-12T20:07:09.209Z,19.00
2022-08-12T20:09:52.607Z,18.90
2022-08-12T20:12:31.798Z,18.80
2022-08-12T20:15:11.197Z,18.80
2022-08-12T20:17:50.546Z,18.70
2022-08-12T20:20:27.687Z,18.60
2022-08-12T20:22:57.544Z,18.50
2022-08-12T20:25:28.529Z,18.40
2022-08-12T20:28:15.094Z,18.30
2022-08-12T20:30:59.089Z,18.20
2022-08-12T20:33:32.648Z,18.10
2022-08-12T20:36:42.298Z,18.00
2022-08-12T20:39:05.695Z,17.90
2022-08-12T20:41:54.455Z,17.80
2022-08-12T20:44:21.269Z,17.70
2022-08-12T20:46:48.094Z,17.60
2022-08-12T20:49:17.555Z,17.50
2022-08-12T20:51:54.788Z,17.40
2022-08-12T20:54:32.917Z,17.30
2022-08-12T20:57:01.906Z,17.20
2022-08-12T20:59:47.687Z,17.10
2022-08-12T21:02:15.237Z,17.10
2022-08-12T21:05:01.558Z,17.00
2022-08-12T21:07:28.922Z,17.00
2022-08-12T21:10:03.398Z,16.90
2022-08-12T21:12:34.432Z,16.90
2022-08-12T21:15:23.760Z,16.80
2022-08-12T21:18:11.842Z,16.70
2022-08-12T21:20:52.778Z,16.70
2022-08-12T21:23:23.895Z,16.60
2022-08-12T21:25:56.090Z,16.60
2022-08-12T21:28:31.195Z,16.50
2022-08-12T21:32:35.964Z,16.50
2022-08-12T21:34:08.065Z,16.40
2022-08-12T21:36:39.725Z,16.40
2022-08-12T21:39:18.176Z,16.30
2022-08-12T21:41:51.214Z,16.30
2022-08-12T21:45:44.432Z,16.30
2022-08-12T21:47:19.782Z,16.20
2022-08-12T21:50:06.863Z,16.20
2022-08-12T21:52:49.103Z,16.10
2022-08-12T21:55:19.742Z,16.10
2022-08-12T21:57:53.262Z,16.10
2022-08-12T22:00:32.075Z,16.00
2022-08-12T22:04:02.104Z,16.00
2022-08-12T22:06:26.220Z,15.90
2022-08-12T22:09:03.555Z,15.90
2022-08-12T22:11:41.008Z,15.90
2022-08-12T22:14:10.273Z,15.90
2022-08-12T22:16:50.678Z,15.80
2022-08-12T22:19:20.917Z,15.80
2022-08-12T22:21:54.763Z,15.80
2022-08-12T22:24:26.845Z,15.90
2022-08-12T22:27:08.251Z,15.90
2022-08-12T22:30:08.709Z,15.90
2022-08-12T22:32:51.297Z,15.90
2022-08-12T22:35:55.728Z,15.80
2022-08-12T22:38:24.949Z,15.80
2022-08-12T22:41:34.275Z,15.70
2022-08-12T22:44:21.215Z,15.60
2022-08-12T22:47:07.138Z,15.50
2022-08-12T22:49:36.878Z,15.40
2022-08-12T22:52:18.237Z,15.30
2022-08-12T22:54:59.950Z,15.20
2022-08-12T22:57:54.072Z,15.10
2022-08-12T23:00:24.097Z,15.10
2022-08-12T23:03:04.065Z,15.00
2022-08-12T23:05:57.737Z,14.90
2022-08-12T23:08:29.838Z,14.90
2022-08-12T23:11:00.516Z,14.80
2022-08-12T23:13:47.252Z,14.80
2022-08-12T23:16:27.978Z,14.80
2022-08-12T23:19:01.408Z,14.80
2022-08-12T23:22:03.642Z,14.80
2022-08-12T23:24:16.949Z,14.80
2022-08-12T23:27:04.257Z,14.80
2022-08-12T23:29:43.888Z,14.80
2022-08-12T23:32:36.094Z,14.80
2022-08-12T23:35:04.505Z,14.80
2022-08-12T23:37:46.762Z,14.80
2022-08-12T23:40:21.190Z,14.80
2022-08-12T23:42:50.090Z,14.70
2022-08-12T23:45:32.005Z,14.70
2022-08-12T23:48:01.885Z,14.80
2022-08-12T23:50:34.108Z,14.80
2022-08-12T23:53:06.572Z,14.70
2022-08-12T23:55:49.833Z,14.70
2022-08-12T23:58:25.843Z,14.70
